sensor_id;sensor_type;location;lat;lon;timestamp;P1;durP1;ratioP1;P2;durP2;ratioP2
52043;SDS011;38053;53.100;6.078;2023-02-21T00:01:56;24.23;;;11.30;;
52043;SDS011;38053;53.100;6.078;2023-02-21T00:04:41;22.92;;;10.73;;
52043;SDS011;38053;53.100;6.078;2023-02-21T00:07:25;30.67;;;10.60;;
52043;SDS011;38053;53.100;6.078;2023-02-21T00:10:11;26.00;;;10.93;;
52043;SDS011;38053;53.100;6.078;2023-02-21T00:12:57;32.40;;;10.73;;
52043;SDS011;38053;53.100;6.078;2023-02-21T00:15:42;23.50;;;10.88;;
52043;SDS011;38053;53.100;6.078;2023-02-21T00:18:26;28.05;;;12.73;;
52043;SDS011;38053;53.100;6.078;2023-02-21T00:21:10;32.95;;;11.27;;
52043;SDS011;38053;53.100;6.078;2023-02-21T00:23:55;34.13;;;11.40;;
52043;SDS011;38053;53.100;6.078;2023-02-21T00:26:39;23.73;;;11.15;;
52043;SDS011;38053;53.100;6.078;2023-02-21T00:29:23;30.92;;;11.05;;
52043;SDS011;38053;53.100;6.078;2023-02-21T00:32:08;29.95;;;12.75;;
52043;SDS011;38053;53.100;6.078;2023-02-21T00:34:53;26.45;;;9.73;;
52043;SDS011;38053;53.100;6.078;2023-02-21T00:37:37;25.67;;;10.05;;
52043;SDS011;38053;53.100;6.078;2023-02-21T00:40:21;28.75;;;11.13;;
52043;SDS011;38053;53.100;6.078;2023-02-21T00:43:06;26.90;;;9.77;;
52043;SDS011;38053;53.100;6.078;2023-02-21T00:45:50;21.60;;;8.40;;
52043;SDS011;38053;53.100;6.078;2023-02-21T00:48:34;19.40;;;9.30;;
52043;SDS011;38053;53.100;6.078;2023-02-21T00:51:18;21.55;;;9.25;;
52043;SDS011;38053;53.100;6.078;2023-02-21T00:54:02;24.13;;;8.63;;
52043;SDS011;38053;53.100;6.078;2023-02-21T00:56:46;18.45;;;7.10;;
52043;SDS011;38053;53.100;6.078;2023-02-21T00:59:31;28.27;;;10.30;;
52043;SDS011;38053;53.100;6.078;2023-02-21T01:02:15;31.13;;;10.35;;
52043;SDS011;38053;53.100;6.078;2023-02-21T01:05:02;20.42;;;9.32;;
52043;SDS011;38053;53.100;6.078;2023-02-21T01:07:47;22.38;;;8.52;;
52043;SDS011;38053;53.100;6.078;2023-02-21T01:10:32;21.25;;;10.02;;
52043;SDS011;38053;53.100;6.078;2023-02-21T01:13:16;22.95;;;9.48;;
52043;SDS011;38053;53.100;6.078;2023-02-21T01:16:05;22.42;;;9.60;;
52043;SDS011;38053;53.100;6.078;2023-02-21T01:18:53;21.05;;;9.65;;
52043;SDS011;38053;53.100;6.078;2023-02-21T01:21:38;22.80;;;10.57;;
52043;SDS011;38053;53.100;6.078;2023-02-21T01:24:22;25.08;;;10.98;;
52043;SDS011;38053;53.100;6.078;2023-02-21T01:27:09;20.42;;;11.43;;
52043;SDS011;38053;53.100;6.078;2023-02-21T01:29:54;20.65;;;10.13;;
52043;SDS011;38053;53.100;6.078;2023-02-21T01:32:38;24.52;;;12.20;;
52043;SDS011;38053;53.100;6.078;2023-02-21T01:35:22;29.63;;;11.18;;
52043;SDS011;38053;53.100;6.078;2023-02-21T01:38:06;32.05;;;12.73;;
52043;SDS011;38053;53.100;6.078;2023-02-21T01:40:50;26.98;;;11.45;;
52043;SDS011;38053;53.100;6.078;2023-02-21T01:43:35;27.23;;;11.98;;
52043;SDS011;38053;53.100;6.078;2023-02-21T01:46:20;35.00;;;13.48;;
52043;SDS011;38053;53.100;6.078;2023-02-21T01:49:09;31.38;;;11.90;;
52043;SDS011;38053;53.100;6.078;2023-02-21T01:51:59;21.98;;;11.32;;
52043;SDS011;38053;53.100;6.078;2023-02-21T01:54:48;29.90;;;11.40;;
52043;SDS011;38053;53.100;6.078;2023-02-21T01:57:36;33.13;;;13.95;;
52043;SDS011;38053;53.100;6.078;2023-02-21T02:00:22;22.65;;;11.73;;
52043;SDS011;38053;53.100;6.078;2023-02-21T02:03:09;25.50;;;12.13;;
52043;SDS011;38053;53.100;6.078;2023-02-21T02:05:58;31.25;;;12.48;;
52043;SDS011;38053;53.100;6.078;2023-02-21T02:08:45;24.67;;;12.07;;
52043;SDS011;38053;53.100;6.078;2023-02-21T02:11:45;29.33;;;12.65;;
52043;SDS011;38053;53.100;6.078;2023-02-21T02:37:50;25.30;;;13.65;;
52043;SDS011;38053;53.100;6.078;2023-02-21T02:46:00;36.92;;;13.90;;
52043;SDS011;38053;53.100;6.078;2023-02-21T02:48:37;33.95;;;14.68;;
52043;SDS011;38053;53.100;6.078;2023-02-21T02:51:08;29.23;;;13.10;;
52043;SDS011;38053;53.100;6.078;2023-02-21T02:53:36;23.67;;;12.02;;
52043;SDS011;38053;53.100;6.078;2023-02-21T02:56:04;27.17;;;12.57;;
52043;SDS011;38053;53.100;6.078;2023-02-21T02:58:33;26.55;;;11.77;;
52043;SDS011;38053;53.100;6.078;2023-02-21T03:11:50;24.90;;;13.43;;
52043;SDS011;38053;53.100;6.078;2023-02-21T03:14:24;27.67;;;14.07;;
52043;SDS011;38053;53.100;6.078;2023-02-21T03:16:54;34.30;;;16.88;;
52043;SDS011;38053;53.100;6.078;2023-02-21T03:19:30;31.42;;;15.00;;
52043;SDS011;38053;53.100;6.078;2023-02-21T03:22:10;29.95;;;15.95;;
52043;SDS011;38053;53.100;6.078;2023-02-21T03:24:45;30.92;;;15.23;;
52043;SDS011;38053;53.100;6.078;2023-02-21T03:27:16;31.35;;;15.77;;
52043;SDS011;38053;53.100;6.078;2023-02-21T03:29:45;25.80;;;14.25;;
52043;SDS011;38053;53.100;6.078;2023-02-21T03:32:14;34.33;;;16.25;;
52043;SDS011;38053;53.100;6.078;2023-02-21T03:34:53;30.48;;;16.73;;
52043;SDS011;38053;53.100;6.078;2023-02-21T03:37:38;30.45;;;15.63;;
52043;SDS011;38053;53.100;6.078;2023-02-21T03:40:15;26.25;;;14.43;;
52043;SDS011;38053;53.100;6.078;2023-02-21T03:42:48;31.67;;;15.65;;
52043;SDS011;38053;53.100;6.078;2023-02-21T03:45:39;28.15;;;16.05;;
52043;SDS011;38053;53.100;6.078;2023-02-21T03:48:39;31.20;;;15.38;;
52043;SDS011;38053;53.100;6.078;2023-02-21T03:54:48;35.13;;;16.65;;
52043;SDS011;38053;53.100;6.078;2023-02-21T04:02:00;33.75;;;17.02;;
52043;SDS011;38053;53.100;6.078;2023-02-21T04:04:34;28.77;;;17.52;;
52043;SDS011;38053;53.100;6.078;2023-02-21T04:07:05;29.02;;;16.17;;
52043;SDS011;38053;53.100;6.078;2023-02-21T04:10:09;33.13;;;17.75;;
52043;SDS011;38053;53.100;6.078;2023-02-21T04:16:39;36.53;;;19.02;;
52043;SDS011;38053;53.100;6.078;2023-02-21T04:19:45;35.17;;;21.23;;
52043;SDS011;38053;53.100;6.078;2023-02-21T04:22:32;39.35;;;19.48;;
52043;SDS011;38053;53.100;6.078;2023-02-21T04:25:00;36.67;;;18.50;;
52043;SDS011;38053;53.100;6.078;2023-02-21T04:27:36;39.85;;;20.88;;
52043;SDS011;38053;53.100;6.078;2023-02-21T04:30:19;30.67;;;16.50;;
52043;SDS011;38053;53.100;6.078;2023-02-21T04:33:40;36.65;;;19.77;;
52043;SDS011;38053;53.100;6.078;2023-02-21T04:39:33;34.08;;;18.95;;
52043;SDS011;38053;53.100;6.078;2023-02-21T04:44:56;37.70;;;21.33;;
52043;SDS011;38053;53.100;6.078;2023-02-21T04:47:37;35.40;;;18.48;;
52043;SDS011;38053;53.100;6.078;2023-02-21T04:50:40;36.97;;;18.33;;
52043;SDS011;38053;53.100;6.078;2023-02-21T04:56:24;26.08;;;16.23;;
52043;SDS011;38053;53.100;6.078;2023-02-21T04:58:54;35.75;;;19.35;;
52043;SDS011;38053;53.100;6.078;2023-02-21T05:01:25;35.20;;;19.90;;
52043;SDS011;38053;53.100;6.078;2023-02-21T05:11:13;29.42;;;18.08;;
52043;SDS011;38053;53.100;6.078;2023-02-21T05:13:51;40.05;;;18.50;;
52043;SDS011;38053;53.100;6.078;2023-02-21T05:16:54;34.08;;;18.95;;
52043;SDS011;38053;53.100;6.078;2023-02-21T05:25:19;39.38;;;20.77;;
52043;SDS011;38053;53.100;6.078;2023-02-21T05:28:08;39.25;;;20.33;;
52043;SDS011;38053;53.100;6.078;2023-02-21T05:31:18;31.67;;;19.42;;
52043;SDS011;38053;53.100;6.078;2023-02-21T05:34:39;30.77;;;17.98;;
52043;SDS011;38053;53.100;6.078;2023-02-21T05:40:58;33.03;;;16.85;;
52043;SDS011;38053;53.100;6.078;2023-02-21T05:43:47;38.53;;;20.10;;
52043;SDS011;38053;53.100;6.078;2023-02-21T05:46:36;35.92;;;18.98;;
52043;SDS011;38053;53.100;6.078;2023-02-21T05:49:19;35.55;;;19.02;;
52043;SDS011;38053;53.100;6.078;2023-02-21T05:52:02;33.50;;;20.27;;
52043;SDS011;38053;53.100;6.078;2023-02-21T05:54:38;29.67;;;19.17;;
52043;SDS011;38053;53.100;6.078;2023-02-21T06:00:32;41.08;;;20.23;;
52043;SDS011;38053;53.100;6.078;2023-02-21T06:03:00;36.58;;;21.38;;
52043;SDS011;38053;53.100;6.078;2023-02-21T06:06:09;35.10;;;19.70;;
52043;SDS011;38053;53.100;6.078;2023-02-21T06:08:55;32.75;;;18.00;;
52043;SDS011;38053;53.100;6.078;2023-02-21T06:11:33;31.75;;;17.88;;
52043;SDS011;38053;53.100;6.078;2023-02-21T06:14:50;29.52;;;16.42;;
52043;SDS011;38053;53.100;6.078;2023-02-21T06:17:59;34.15;;;19.65;;
52043;SDS011;38053;53.100;6.078;2023-02-21T06:20:31;34.97;;;19.65;;
52043;SDS011;38053;53.100;6.078;2023-02-21T06:24:19;38.75;;;19.70;;
52043;SDS011;38053;53.100;6.078;2023-02-21T06:30:31;37.63;;;19.20;;
52043;SDS011;38053;53.100;6.078;2023-02-21T06:37:11;31.08;;;20.23;;
52043;SDS011;38053;53.100;6.078;2023-02-21T07:09:38;44.95;;;23.38;;
52043;SDS011;38053;53.100;6.078;2023-02-21T07:12:42;32.80;;;20.38;;
52043;SDS011;38053;53.100;6.078;2023-02-21T07:16:00;44.65;;;23.40;;
52043;SDS011;38053;53.100;6.078;2023-02-21T07:18:39;43.08;;;23.45;;
52043;SDS011;38053;53.100;6.078;2023-02-21T07:22:08;44.70;;;23.00;;
52043;SDS011;38053;53.100;6.078;2023-02-21T07:32:11;39.80;;;21.80;;
52043;SDS011;38053;53.100;6.078;2023-02-21T07:35:23;36.35;;;19.40;;
52043;SDS011;38053;53.100;6.078;2023-02-21T07:38:27;45.00;;;25.25;;
52043;SDS011;38053;53.100;6.078;2023-02-21T07:41:12;39.25;;;22.85;;
52043;SDS011;38053;53.100;6.078;2023-02-21T07:47:07;39.08;;;23.67;;
52043;SDS011;38053;53.100;6.078;2023-02-21T07:49:41;44.60;;;22.92;;
52043;SDS011;38053;53.100;6.078;2023-02-21T07:59:38;37.40;;;22.48;;
52043;SDS011;38053;53.100;6.078;2023-02-21T08:02:59;40.30;;;22.95;;
52043;SDS011;38053;53.100;6.078;2023-02-21T08:05:57;44.40;;;24.15;;
52043;SDS011;38053;53.100;6.078;2023-02-21T08:08:29;36.75;;;22.73;;
52043;SDS011;38053;53.100;6.078;2023-02-21T08:14:06;35.58;;;22.10;;
52043;SDS011;38053;53.100;6.078;2023-02-21T08:17:01;37.45;;;22.27;;
52043;SDS011;38053;53.100;6.078;2023-02-21T08:19:50;35.08;;;20.92;;
52043;SDS011;38053;53.100;6.078;2023-02-21T08:22:17;38.53;;;23.17;;
52043;SDS011;38053;53.100;6.078;2023-02-21T08:24:43;37.72;;;21.77;;
52043;SDS011;38053;53.100;6.078;2023-02-21T08:27:21;34.75;;;21.95;;
52043;SDS011;38053;53.100;6.078;2023-02-21T08:32:42;37.88;;;22.70;;
52043;SDS011;38053;53.100;6.078;2023-02-21T08:35:30;35.40;;;21.65;;
52043;SDS011;38053;53.100;6.078;2023-02-21T08:38:16;30.45;;;20.95;;
52043;SDS011;38053;53.100;6.078;2023-02-21T08:40:46;33.00;;;21.00;;
52043;SDS011;38053;53.100;6.078;2023-02-21T08:43:37;38.38;;;22.90;;
52043;SDS011;38053;53.100;6.078;2023-02-21T08:46:15;32.92;;;20.60;;
52043;SDS011;38053;53.100;6.078;2023-02-21T08:52:32;30.20;;;18.83;;
52043;SDS011;38053;53.100;6.078;2023-02-21T08:58:34;38.35;;;21.38;;
52043;SDS011;38053;53.100;6.078;2023-02-21T09:01:21;32.60;;;20.77;;
52043;SDS011;38053;53.100;6.078;2023-02-21T09:04:13;32.13;;;20.00;;
52043;SDS011;38053;53.100;6.078;2023-02-21T09:06:49;32.00;;;19.73;;
52043;SDS011;38053;53.100;6.078;2023-02-21T09:09:20;36.17;;;22.00;;
52043;SDS011;38053;53.100;6.078;2023-02-21T09:11:52;32.78;;;21.30;;
52043;SDS011;38053;53.100;6.078;2023-02-21T09:14:28;34.70;;;19.60;;
52043;SDS011;38053;53.100;6.078;2023-02-21T09:16:55;33.97;;;20.20;;
52043;SDS011;38053;53.100;6.078;2023-02-21T09:19:36;31.17;;;19.73;;
52043;SDS011;38053;53.100;6.078;2023-02-21T09:22:31;30.58;;;18.33;;
52043;SDS011;38053;53.100;6.078;2023-02-21T09:25:15;35.50;;;20.70;;
52043;SDS011;38053;53.100;6.078;2023-02-21T09:27:56;32.15;;;19.75;;
52043;SDS011;38053;53.100;6.078;2023-02-21T09:30:43;32.67;;;20.80;;
52043;SDS011;38053;53.100;6.078;2023-02-21T09:33:11;36.85;;;21.00;;
52043;SDS011;38053;53.100;6.078;2023-02-21T09:35:40;34.58;;;20.27;;
52043;SDS011;38053;53.100;6.078;2023-02-21T09:38:16;31.35;;;19.92;;
52043;SDS011;38053;53.100;6.078;2023-02-21T09:40:53;31.95;;;17.17;;
52043;SDS011;38053;53.100;6.078;2023-02-21T09:43:56;30.23;;;19.75;;
52043;SDS011;38053;53.100;6.078;2023-02-21T09:46:40;30.60;;;20.42;;
52043;SDS011;38053;53.100;6.078;2023-02-21T09:51:57;29.70;;;17.90;;
52043;SDS011;38053;53.100;6.078;2023-02-21T09:54:35;27.27;;;19.75;;
52043;SDS011;38053;53.100;6.078;2023-02-21T09:57:15;28.17;;;19.08;;
52043;SDS011;38053;53.100;6.078;2023-02-21T09:59:56;32.83;;;19.20;;
52043;SDS011;38053;53.100;6.078;2023-02-21T10:17:22;25.83;;;16.38;;
52043;SDS011;38053;53.100;6.078;2023-02-21T10:20:20;30.48;;;16.50;;
52043;SDS011;38053;53.100;6.078;2023-02-21T10:22:53;30.55;;;17.38;;
52043;SDS011;38053;53.100;6.078;2023-02-21T10:25:33;27.67;;;18.15;;
52043;SDS011;38053;53.100;6.078;2023-02-21T10:31:28;30.73;;;16.42;;
52043;SDS011;38053;53.100;6.078;2023-02-21T10:34:56;26.70;;;17.67;;
52043;SDS011;38053;53.100;6.078;2023-02-21T10:37:52;27.60;;;18.02;;
52043;SDS011;38053;53.100;6.078;2023-02-21T10:43:52;36.25;;;20.25;;
52043;SDS011;38053;53.100;6.078;2023-02-21T10:46:32;34.30;;;19.90;;
52043;SDS011;38053;53.100;6.078;2023-02-21T10:58:56;27.05;;;18.73;;
52043;SDS011;38053;53.100;6.078;2023-02-21T11:01:58;30.88;;;17.92;;
52043;SDS011;38053;53.100;6.078;2023-02-21T11:05:12;30.10;;;19.45;;
52043;SDS011;38053;53.100;6.078;2023-02-21T11:08:13;29.95;;;18.58;;
52043;SDS011;38053;53.100;6.078;2023-02-21T11:11:08;26.60;;;17.52;;
52043;SDS011;38053;53.100;6.078;2023-02-21T11:19:47;35.00;;;18.50;;
52043;SDS011;38053;53.100;6.078;2023-02-21T11:22:37;27.33;;;16.63;;
52043;SDS011;38053;53.100;6.078;2023-02-21T11:25:32;30.17;;;18.50;;
52043;SDS011;38053;53.100;6.078;2023-02-21T11:31:04;26.08;;;17.05;;
52043;SDS011;38053;53.100;6.078;2023-02-21T11:33:46;28.48;;;18.70;;
52043;SDS011;38053;53.100;6.078;2023-02-21T11:36:29;28.05;;;18.08;;
52043;SDS011;38053;53.100;6.078;2023-02-21T11:39:26;23.90;;;17.52;;
52043;SDS011;38053;53.100;6.078;2023-02-21T11:42:29;29.50;;;21.50;;
52043;SDS011;38053;53.100;6.078;2023-02-21T11:45:18;24.10;;;15.95;;
52043;SDS011;38053;53.100;6.078;2023-02-21T11:51:46;25.88;;;17.08;;
52043;SDS011;38053;53.100;6.078;2023-02-21T11:57:54;32.45;;;18.02;;
52043;SDS011;38053;53.100;6.078;2023-02-21T12:15:00;27.98;;;18.60;;
52043;SDS011;38053;53.100;6.078;2023-02-21T12:18:24;28.67;;;18.02;;
52043;SDS011;38053;53.100;6.078;2023-02-21T12:27:47;27.60;;;18.38;;
52043;SDS011;38053;53.100;6.078;2023-02-21T12:34:21;33.25;;;17.83;;
52043;SDS011;38053;53.100;6.078;2023-02-21T12:56:29;25.60;;;18.38;;
52043;SDS011;38053;53.100;6.078;2023-02-21T13:14:55;22.67;;;15.88;;
52043;SDS011;38053;53.100;6.078;2023-02-21T13:18:00;30.23;;;17.50;;
52043;SDS011;38053;53.100;6.078;2023-02-21T13:20:39;24.02;;;18.33;;
52043;SDS011;38053;53.100;6.078;2023-02-21T13:29:18;29.92;;;16.60;;
52043;SDS011;38053;53.100;6.078;2023-02-21T13:32:16;25.80;;;17.48;;
52043;SDS011;38053;53.100;6.078;2023-02-21T13:35:00;29.38;;;18.20;;
52043;SDS011;38053;53.100;6.078;2023-02-21T13:38:33;25.73;;;18.08;;
52043;SDS011;38053;53.100;6.078;2023-02-21T13:41:10;24.77;;;17.48;;
52043;SDS011;38053;53.100;6.078;2023-02-21T13:52:33;26.98;;;16.35;;
52043;SDS011;38053;53.100;6.078;2023-02-21T13:55:23;31.52;;;19.50;;
52043;SDS011;38053;53.100;6.078;2023-02-21T14:07:47;26.70;;;17.27;;
52043;SDS011;38053;53.100;6.078;2023-02-21T14:13:32;25.98;;;18.88;;
52043;SDS011;38053;53.100;6.078;2023-02-21T14:16:35;24.98;;;18.00;;
52043;SDS011;38053;53.100;6.078;2023-02-21T14:19:30;25.00;;;17.42;;
52043;SDS011;38053;53.100;6.078;2023-02-21T14:22:23;22.77;;;17.23;;
52043;SDS011;38053;53.100;6.078;2023-02-21T14:25:24;24.55;;;17.45;;
52043;SDS011;38053;53.100;6.078;2023-02-21T14:27:57;86.10;;;49.15;;
52043;SDS011;38053;53.100;6.078;2023-02-21T14:30:27;33.15;;;21.17;;
52043;SDS011;38053;53.100;6.078;2023-02-21T14:33:19;23.75;;;16.75;;
52043;SDS011;38053;53.100;6.078;2023-02-21T14:35:53;24.98;;;18.70;;
52043;SDS011;38053;53.100;6.078;2023-02-21T14:41:10;25.08;;;17.30;;
52043;SDS011;38053;53.100;6.078;2023-02-21T14:47:06;30.08;;;19.70;;
52043;SDS011;38053;53.100;6.078;2023-02-21T14:50:07;29.77;;;20.30;;
52043;SDS011;38053;53.100;6.078;2023-02-21T15:05:15;35.90;;;23.55;;
52043;SDS011;38053;53.100;6.078;2023-02-21T15:10:17;34.88;;;24.92;;
52043;SDS011;38053;53.100;6.078;2023-02-21T15:12:53;36.03;;;24.33;;
52043;SDS011;38053;53.100;6.078;2023-02-21T15:21:30;35.05;;;24.85;;
52043;SDS011;38053;53.100;6.078;2023-02-21T15:24:14;31.30;;;22.55;;
52043;SDS011;38053;53.100;6.078;2023-02-21T15:26:40;32.75;;;23.35;;
52043;SDS011;38053;53.100;6.078;2023-02-21T15:29:34;36.95;;;23.50;;
52043;SDS011;38053;53.100;6.078;2023-02-21T15:38:41;32.42;;;21.73;;
52043;SDS011;38053;53.100;6.078;2023-02-21T15:41:39;33.08;;;22.80;;
52043;SDS011;38053;53.100;6.078;2023-02-21T15:44:31;35.10;;;20.60;;
52043;SDS011;38053;53.100;6.078;2023-02-21T15:47:36;33.30;;;21.33;;
52043;SDS011;38053;53.100;6.078;2023-02-21T15:55:48;31.30;;;20.33;;
52043;SDS011;38053;53.100;6.078;2023-02-21T16:01:39;43.33;;;29.33;;
52043;SDS011;38053;53.100;6.078;2023-02-21T16:04:20;44.10;;;27.08;;
52043;SDS011;38053;53.100;6.078;2023-02-21T16:07:23;28.35;;;20.13;;
52043;SDS011;38053;53.100;6.078;2023-02-21T16:10:14;29.98;;;17.77;;
52043;SDS011;38053;53.100;6.078;2023-02-21T16:12:46;26.95;;;18.00;;
52043;SDS011;38053;53.100;6.078;2023-02-21T16:15:33;25.08;;;19.27;;
52043;SDS011;38053;53.100;6.078;2023-02-21T16:21:05;30.60;;;18.45;;
52043;SDS011;38053;53.100;6.078;2023-02-21T16:23:46;26.80;;;18.80;;
52043;SDS011;38053;53.100;6.078;2023-02-21T16:29:59;29.05;;;20.58;;
52043;SDS011;38053;53.100;6.078;2023-02-21T16:33:05;28.00;;;20.75;;
52043;SDS011;38053;53.100;6.078;2023-02-21T16:42:07;29.15;;;21.83;;
52043;SDS011;38053;53.100;6.078;2023-02-21T16:44:46;28.80;;;20.60;;
52043;SDS011;38053;53.100;6.078;2023-02-21T16:47:17;61.22;;;51.40;;
52043;SDS011;38053;53.100;6.078;2023-02-21T16:49:46;33.72;;;22.65;;
52043;SDS011;38053;53.100;6.078;2023-02-21T16:52:42;32.50;;;22.50;;
52043;SDS011;38053;53.100;6.078;2023-02-21T16:55:19;31.13;;;21.85;;
52043;SDS011;38053;53.100;6.078;2023-02-21T16:58:00;32.22;;;22.20;;
52043;SDS011;38053;53.100;6.078;2023-02-21T17:00:55;32.25;;;22.52;;
52043;SDS011;38053;53.100;6.078;2023-02-21T17:03:27;27.70;;;20.55;;
52043;SDS011;38053;53.100;6.078;2023-02-21T17:08:58;31.52;;;21.90;;
52043;SDS011;38053;53.100;6.078;2023-02-21T17:18:04;30.85;;;22.20;;
52043;SDS011;38053;53.100;6.078;2023-02-21T17:20:51;31.30;;;23.80;;
52043;SDS011;38053;53.100;6.078;2023-02-21T17:23:26;30.85;;;21.80;;
52043;SDS011;38053;53.100;6.078;2023-02-21T17:26:00;31.77;;;22.08;;
52043;SDS011;38053;53.100;6.078;2023-02-21T17:28:40;30.48;;;20.67;;
52043;SDS011;38053;53.100;6.078;2023-02-21T17:31:38;33.90;;;22.63;;
52043;SDS011;38053;53.100;6.078;2023-02-21T17:34:20;30.60;;;22.10;;
52043;SDS011;38053;53.100;6.078;2023-02-21T17:36:50;34.17;;;22.92;;
52043;SDS011;38053;53.100;6.078;2023-02-21T17:39:51;38.63;;;24.90;;
52043;SDS011;38053;53.100;6.078;2023-02-21T17:42:31;31.40;;;23.73;;
52043;SDS011;38053;53.100;6.078;2023-02-21T17:45:10;34.30;;;24.52;;
52043;SDS011;38053;53.100;6.078;2023-02-21T17:47:58;33.50;;;22.95;;
52043;SDS011;38053;53.100;6.078;2023-02-21T17:50:50;35.85;;;24.15;;
52043;SDS011;38053;53.100;6.078;2023-02-21T17:53:16;37.78;;;24.85;;
52043;SDS011;38053;53.100;6.078;2023-02-21T17:56:35;35.78;;;24.30;;
52043;SDS011;38053;53.100;6.078;2023-02-21T17:59:21;38.17;;;24.92;;
52043;SDS011;38053;53.100;6.078;2023-02-21T18:02:56;30.92;;;22.70;;
52043;SDS011;38053;53.100;6.078;2023-02-21T18:05:55;35.95;;;25.50;;
52043;SDS011;38053;53.100;6.078;2023-02-21T18:08:56;38.03;;;25.63;;
52043;SDS011;38053;53.100;6.078;2023-02-21T18:11:35;38.58;;;27.38;;
52043;SDS011;38053;53.100;6.078;2023-02-21T18:14:19;36.50;;;25.08;;
52043;SDS011;38053;53.100;6.078;2023-02-21T18:16:49;33.00;;;23.40;;
52043;SDS011;38053;53.100;6.078;2023-02-21T18:19:36;40.72;;;26.17;;
52043;SDS011;38053;53.100;6.078;2023-02-21T18:23:09;35.42;;;23.77;;
52043;SDS011;38053;53.100;6.078;2023-02-21T18:25:54;32.08;;;22.73;;
52043;SDS011;38053;53.100;6.078;2023-02-21T18:28:23;36.10;;;25.17;;
52043;SDS011;38053;53.100;6.078;2023-02-21T18:31:07;41.38;;;25.42;;
52043;SDS011;38053;53.100;6.078;2023-02-21T18:33:45;39.40;;;26.05;;
52043;SDS011;38053;53.100;6.078;2023-02-21T18:36:36;41.63;;;25.05;;
52043;SDS011;38053;53.100;6.078;2023-02-21T18:39:05;40.83;;;25.70;;
52043;SDS011;38053;53.100;6.078;2023-02-21T18:41:46;35.78;;;23.25;;
52043;SDS011;38053;53.100;6.078;2023-02-21T18:44:23;36.95;;;24.25;;
52043;SDS011;38053;53.100;6.078;2023-02-21T18:46:57;34.97;;;23.30;;
52043;SDS011;38053;53.100;6.078;2023-02-21T18:56:01;45.47;;;26.98;;
52043;SDS011;38053;53.100;6.078;2023-02-21T18:59:02;36.85;;;23.52;;
52043;SDS011;38053;53.100;6.078;2023-02-21T19:02:28;36.65;;;25.17;;
52043;SDS011;38053;53.100;6.078;2023-02-21T19:12:43;39.33;;;26.60;;
52043;SDS011;38053;53.100;6.078;2023-02-21T19:21:57;43.65;;;26.30;;
52043;SDS011;38053;53.100;6.078;2023-02-21T19:25:16;42.40;;;26.88;;
52043;SDS011;38053;53.100;6.078;2023-02-21T19:31:21;44.08;;;25.73;;
52043;SDS011;38053;53.100;6.078;2023-02-21T19:34:08;42.97;;;25.88;;
52043;SDS011;38053;53.100;6.078;2023-02-21T19:37:05;42.65;;;26.90;;
52043;SDS011;38053;53.100;6.078;2023-02-21T19:39:50;42.08;;;26.10;;
52043;SDS011;38053;53.100;6.078;2023-02-21T19:42:22;40.97;;;25.92;;
52043;SDS011;38053;53.100;6.078;2023-02-21T19:45:17;50.22;;;29.58;;
52043;SDS011;38053;53.100;6.078;2023-02-21T19:48:21;48.60;;;29.13;;
52043;SDS011;38053;53.100;6.078;2023-02-21T19:54:38;47.80;;;25.73;;
52043;SDS011;38053;53.100;6.078;2023-02-21T19:57:16;41.03;;;23.88;;
52043;SDS011;38053;53.100;6.078;2023-02-21T20:00:03;40.80;;;26.45;;
52043;SDS011;38053;53.100;6.078;2023-02-21T20:02:40;42.40;;;26.83;;
52043;SDS011;38053;53.100;6.078;2023-02-21T20:05:42;42.42;;;26.48;;
52043;SDS011;38053;53.100;6.078;2023-02-21T20:11:24;45.72;;;26.55;;
52043;SDS011;38053;53.100;6.078;2023-02-21T20:17:02;45.35;;;27.70;;
52043;SDS011;38053;53.100;6.078;2023-02-21T20:20:04;42.05;;;26.20;;
52043;SDS011;38053;53.100;6.078;2023-02-21T20:22:51;42.00;;;26.10;;
52043;SDS011;38053;53.100;6.078;2023-02-21T20:25:28;42.75;;;24.92;;
52043;SDS011;38053;53.100;6.078;2023-02-21T20:28:24;46.30;;;26.52;;
52043;SDS011;38053;53.100;6.078;2023-02-21T20:30:57;47.63;;;27.60;;
52043;SDS011;38053;53.100;6.078;2023-02-21T20:33:26;46.97;;;26.20;;
52043;SDS011;38053;53.100;6.078;2023-02-21T20:36:05;45.35;;;26.67;;
52043;SDS011;38053;53.100;6.078;2023-02-21T20:41:54;59.17;;;31.95;;
52043;SDS011;38053;53.100;6.078;2023-02-21T20:44:43;60.00;;;33.05;;
52043;SDS011;38053;53.100;6.078;2023-02-21T20:47:26;69.05;;;34.42;;
52043;SDS011;38053;53.100;6.078;2023-02-21T20:50:18;63.13;;;34.88;;
52043;SDS011;38053;53.100;6.078;2023-02-21T20:53:05;70.03;;;36.53;;
52043;SDS011;38053;53.100;6.078;2023-02-21T20:56:15;66.90;;;36.05;;
52043;SDS011;38053;53.100;6.078;2023-02-21T20:58:59;69.78;;;36.38;;
52043;SDS011;38053;53.100;6.078;2023-02-21T21:01:35;71.75;;;35.90;;
52043;SDS011;38053;53.100;6.078;2023-02-21T21:04:11;71.93;;;36.55;;
52043;SDS011;38053;53.100;6.078;2023-02-21T21:09:53;71.05;;;38.22;;
52043;SDS011;38053;53.100;6.078;2023-02-21T21:15:59;66.13;;;36.17;;
52043;SDS011;38053;53.100;6.078;2023-02-21T21:18:33;75.95;;;37.60;;
52043;SDS011;38053;53.100;6.078;2023-02-21T21:21:01;77.07;;;38.90;;
52043;SDS011;38053;53.100;6.078;2023-02-21T21:23:40;73.00;;;35.53;;
52043;SDS011;38053;53.100;6.078;2023-02-21T21:26:14;78.65;;;35.67;;
52043;SDS011;38053;53.100;6.078;2023-02-21T21:28:50;77.43;;;34.30;;
52043;SDS011;38053;53.100;6.078;2023-02-21T21:31:37;77.80;;;37.13;;
52043;SDS011;38053;53.100;6.078;2023-02-21T21:34:19;75.97;;;37.53;;
52043;SDS011;38053;53.100;6.078;2023-02-21T21:39:35;70.57;;;34.63;;
52043;SDS011;38053;53.100;6.078;2023-02-21T21:42:16;75.45;;;33.75;;
52043;SDS011;38053;53.100;6.078;2023-02-21T21:44:52;75.53;;;36.40;;
52043;SDS011;38053;53.100;6.078;2023-02-21T21:47:22;72.93;;;34.85;;
52043;SDS011;38053;53.100;6.078;2023-02-21T21:50:00;62.92;;;33.45;;
52043;SDS011;38053;53.100;6.078;2023-02-21T21:52:44;75.63;;;34.45;;
52043;SDS011;38053;53.100;6.078;2023-02-21T21:55:30;63.28;;;31.65;;
52043;SDS011;38053;53.100;6.078;2023-02-21T21:57:59;65.70;;;31.85;;
52043;SDS011;38053;53.100;6.078;2023-02-21T22:00:27;69.47;;;31.27;;
52043;SDS011;38053;53.100;6.078;2023-02-21T22:03:05;66.28;;;33.42;;
52043;SDS011;38053;53.100;6.078;2023-02-21T22:05:34;63.25;;;31.35;;
52043;SDS011;38053;53.100;6.078;2023-02-21T22:08:12;70.07;;;31.85;;
52043;SDS011;38053;53.100;6.078;2023-02-21T22:10:49;72.28;;;34.10;;
52043;SDS011;38053;53.100;6.078;2023-02-21T22:13:29;68.22;;;31.92;;
52043;SDS011;38053;53.100;6.078;2023-02-21T22:16:04;74.80;;;34.97;;
52043;SDS011;38053;53.100;6.078;2023-02-21T22:18:42;67.72;;;32.72;;
52043;SDS011;38053;53.100;6.078;2023-02-21T22:21:11;66.63;;;32.33;;
52043;SDS011;38053;53.100;6.078;2023-02-21T22:24:04;62.92;;;31.33;;
52043;SDS011;38053;53.100;6.078;2023-02-21T22:26:34;73.38;;;31.75;;
52043;SDS011;38053;53.100;6.078;2023-02-21T22:29:06;65.88;;;30.90;;
52043;SDS011;38053;53.100;6.078;2023-02-21T22:31:35;75.28;;;32.33;;
52043;SDS011;38053;53.100;6.078;2023-02-21T22:34:01;75.35;;;34.33;;
52043;SDS011;38053;53.100;6.078;2023-02-21T22:36:28;79.45;;;31.92;;
52043;SDS011;38053;53.100;6.078;2023-02-21T22:38:55;70.68;;;32.70;;